createdAt,value
2022-12-01T00:03:36.622Z,47.88
2022-12-01T00:08:40.412Z,46.59
2022-12-01T00:13:42.353Z,49.46
2022-12-01T00:18:44.414Z,48.73
2022-12-01T00:23:48.200Z,47.64
2022-12-01T00:28:52.190Z,47.75
2022-12-01T00:33:55.072Z,46.50
2022-12-01T00:38:57.402Z,52.59
2022-12-01T00:43:59.310Z,46.36
2022-12-01T00:49:01.244Z,47.86
2022-12-01T00:54:03.223Z,47.17
2022-12-01T00:59:07.212Z,46.33
2022-12-01T01:04:09.193Z,45.35
2022-12-01T01:09:12.474Z,44.00
2022-12-01T01:14:14.677Z,43.64
2022-12-01T01:19:17.509Z,43.82
2022-12-01T01:24:20.446Z,43.12
2022-12-01T01:29:22.446Z,44.14
2022-12-01T01:34:24.397Z,44.94
2022-12-01T01:39:26.340Z,44.46
2022-12-01T01:44:49.170Z,44.18
2022-12-01T01:49:52.231Z,44.52
2022-12-01T01:54:55.766Z,47.44
2022-12-01T02:00:11.332Z,47.07
2022-12-01T02:05:21.134Z,46.82
2022-12-01T02:10:43.594Z,44.84
2022-12-01T02:15:57.650Z,44.00
2022-12-01T02:21:14.141Z,47.11
2022-12-01T02:26:43.942Z,45.70
2022-12-01T02:31:54.935Z,50.71
2022-12-01T02:37:08.532Z,49.65
2022-12-01T02:42:48.660Z,46.57
2022-12-01T02:47:54.987Z,46.81
2022-12-01T02:52:57.560Z,50.37
2022-12-01T02:57:59.583Z,47.58
2022-12-01T03:03:40.999Z,50.92
2022-12-01T03:09:14.238Z,48.55
2022-12-01T03:14:45.483Z,47.46
2022-12-01T03:19:56.190Z,46.66
2022-12-01T03:25:02.245Z,45.42
2022-12-01T03:30:05.172Z,44.66
2022-12-01T03:35:14.523Z,45.73
2022-12-01T03:40:21.639Z,45.34
2022-12-01T03:45:51.336Z,45.07
2022-12-01T03:51:18.234Z,45.95
2022-12-01T03:56:24.047Z,46.24
2022-12-01T04:01:32.767Z,45.37
2022-12-01T04:06:34.927Z,48.43
2022-12-01T04:11:55.434Z,46.13
2022-12-01T04:16:57.369Z,48.32
2022-12-01T04:21:59.264Z,46.12
2022-12-01T04:27:01.231Z,47.00
2022-12-01T04:32:03.335Z,50.11
2022-12-01T04:37:06.618Z,54.87
2022-12-01T04:42:09.539Z,52.83
2022-12-01T04:47:11.489Z,54.05
2022-12-01T04:52:13.478Z,55.98
2022-12-01T04:57:15.445Z,53.25
2022-12-01T05:02:17.498Z,52.37
2022-12-01T05:07:19.555Z,52.19
2022-12-01T05:12:21.634Z,52.63
2022-12-01T05:17:23.714Z,53.78
2022-12-01T05:22:56.865Z,54.99
2022-12-01T05:27:47.776Z,52.78
2022-12-01T05:32:50.527Z,50.04
2022-12-01T05:37:52.711Z,53.41
2022-12-01T05:42:54.781Z,52.64
2022-12-01T05:47:58.661Z,51.91
2022-12-01T05:53:00.726Z,49.04
2022-12-01T05:58:03.287Z,50.89
2022-12-01T06:03:05.595Z,50.84
2022-12-01T06:08:08.265Z,49.27
2022-12-01T06:13:10.343Z,47.34
2022-12-01T06:18:12.274Z,47.97
2022-12-01T06:23:14.231Z,47.64
2022-12-01T06:28:17.036Z,46.75
2022-12-01T06:33:19.078Z,47.53
2022-12-01T06:38:21.055Z,46.38
2022-12-01T06:43:23.033Z,47.28
2022-12-01T06:48:25.055Z,48.54
2022-12-01T06:53:28.545Z,46.99
2022-12-01T06:58:31.077Z,46.61
2022-12-01T07:03:33.342Z,46.10
2022-12-01T07:08:35.280Z,48.54
2022-12-01T07:13:37.191Z,49.84
2022-12-01T07:18:40.607Z,49.47
2022-12-01T07:23:43.318Z,48.60
2022-12-01T07:28:45.615Z,46.88
2022-12-01T07:33:47.668Z,45.77
2022-12-01T07:38:49.733Z,45.79
2022-12-01T07:43:51.677Z,45.59
2022-12-01T07:48:55.046Z,45.08
2022-12-01T07:54:01.447Z,47.17
2022-12-01T07:59:03.489Z,45.42
2022-12-01T08:04:05.416Z,45.22
2022-12-01T08:09:07.386Z,54.35
2022-12-01T08:14:09.350Z,59.63
2022-12-01T08:19:11.673Z,55.06
2022-12-01T08:24:13.622Z,51.29
2022-12-01T08:29:19.916Z,48.80
2022-12-01T08:34:22.540Z,54.30
2022-12-01T08:39:24.479Z,55.98
2022-12-01T08:44:26.450Z,54.63
2022-12-01T08:49:28.384Z,52.70
2022-12-01T08:54:30.280Z,51.37
2022-12-01T08:59:32.199Z,52.42
2022-12-01T09:04:34.184Z,62.15
2022-12-01T09:09:37.303Z,60.13
2022-12-01T09:14:41.284Z,58.69
2022-12-01T09:19:44.241Z,63.17
2022-12-01T09:24:46.176Z,58.87
2022-12-01T09:29:48.484Z,58.94
2022-12-01T09:34:50.739Z,59.76
2022-12-01T09:39:52.659Z,58.37
2022-12-01T09:44:57.347Z,56.17
2022-12-01T09:50:02.030Z,54.81
2022-12-01T09:55:11.884Z,53.21
2022-12-01T10:00:15.838Z,52.66
2022-12-01T10:05:23.872Z,57.65
2022-12-01T10:10:36.436Z,58.96
2022-12-01T10:15:45.990Z,60.16
2022-12-01T10:21:12.212Z,55.38
2022-12-01T10:26:19.640Z,52.53
2022-12-01T10:31:31.186Z,50.33
2022-12-01T10:36:34.766Z,50.80
2022-12-01T10:41:39.401Z,51.22
2022-12-01T10:46:55.162Z,51.47
2022-12-01T10:51:58.454Z,52.34
2022-12-01T10:57:02.024Z,52.19
2022-12-01T11:02:06.453Z,52.92
2022-12-01T11:07:16.802Z,54.98
2022-12-01T11:12:20.582Z,49.79
2022-12-01T11:17:22.496Z,55.55
2022-12-01T11:22:31.189Z,53.50
2022-12-01T11:27:57.654Z,50.75
2022-12-01T11:33:03.235Z,48.67
2022-12-01T11:38:29.225Z,48.30
2022-12-01T11:43:36.259Z,48.21
2022-12-01T11:48:39.139Z,49.44
2022-12-01T11:53:43.177Z,46.95
2022-12-01T11:58:47.907Z,46.65
2022-12-01T12:04:00.801Z,50.16
2022-12-01T12:15:25.471Z,55.59
2022-12-01T12:20:57.951Z,55.37
2022-12-01T12:26:06.272Z,56.93
2022-12-01T12:31:17.117Z,56.45
2022-12-01T12:36:25.878Z,50.88
2022-12-01T12:41:47.403Z,50.37
2022-12-01T12:47:09.536Z,47.50
2022-12-01T12:52:24.077Z,53.72
2022-12-01T12:57:33.848Z,51.16
2022-12-01T13:02:50.749Z,55.08
2022-12-01T13:08:06.234Z,57.57
2022-12-01T13:13:27.901Z,60.61
2022-12-01T13:18:43.913Z,60.24
2022-12-01T13:23:48.445Z,53.82
2022-12-01T13:28:57.276Z,50.51
2022-12-01T13:34:02.639Z,53.72
2022-12-01T13:39:15.432Z,50.14
2022-12-01T13:44:25.212Z,47.13
2022-12-01T13:49:36.918Z,49.82
2022-12-01T13:54:38.938Z,46.26
2022-12-01T14:00:03.299Z,46.37
2022-12-01T14:05:23.041Z,50.85
2022-12-01T14:10:24.916Z,53.24
2022-12-01T14:15:40.282Z,50.37
2022-12-01T14:20:48.555Z,52.60
2022-12-01T14:26:05.419Z,51.90
2022-12-01T14:31:07.509Z,49.29
2022-12-01T14:36:24.543Z,48.66
2022-12-01T14:41:33.525Z,49.55
2022-12-01T14:46:42.897Z,51.16
2022-12-01T14:51:49.110Z,52.97
2022-12-01T14:56:53.800Z,49.58
2022-12-01T15:02:06.828Z,47.97
2022-12-01T15:07:08.800Z,46.45
2022-12-01T15:12:26.347Z,48.37
2022-12-01T15:17:31.301Z,46.40
2022-12-01T15:22:34.063Z,46.23
2022-12-01T15:27:36.063Z,45.30
2022-12-01T15:32:38.854Z,45.48
2022-12-01T15:37:44.297Z,44.52
2022-12-01T15:43:00.822Z,47.43
2022-12-01T15:48:15.899Z,44.66
2022-12-01T15:53:25.175Z,48.50
2022-12-01T15:58:33.164Z,47.80
2022-12-01T16:03:46.930Z,48.00
2022-12-01T16:09:07.689Z,47.69
2022-12-01T16:14:24.795Z,46.80
2022-12-01T16:19:34.034Z,45.21
2022-12-01T16:24:42.966Z,48.19
2022-12-01T16:30:06.373Z,45.65
2022-12-01T16:35:32.133Z,45.45
2022-12-01T16:40:34.042Z,44.21
2022-12-01T16:45:35.929Z,43.86
2022-12-01T16:50:39.324Z,43.98
2022-12-01T16:55:49.818Z,44.20
2022-12-01T17:00:54.930Z,43.63
2022-12-01T17:05:59.972Z,43.16
2022-12-01T17:11:06.979Z,42.48
2022-12-01T17:16:13.965Z,43.04
2022-12-01T17:21:20.215Z,43.64
2022-12-01T17:26:23.196Z,46.30
2022-12-01T17:31:25.323Z,46.21
2022-12-01T17:36:27.751Z,45.82
2022-12-01T17:41:35.867Z,45.35
2022-12-01T17:46:38.665Z,44.20
2022-12-01T17:51:41.819Z,44.52
2022-12-01T17:56:43.946Z,44.01
2022-12-01T18:01:46.147Z,43.65
2022-12-01T18:06:53.777Z,44.17
2022-12-01T18:11:57.147Z,45.76
2022-12-01T18:16:59.177Z,43.91
2022-12-01T18:22:01.230Z,42.39
2022-12-01T18:27:03.322Z,45.63
2022-12-01T18:32:05.354Z,43.51
2022-12-01T18:37:07.313Z,43.29
2022-12-01T18:42:09.296Z,42.06
2022-12-01T18:47:11.378Z,42.47
2022-12-01T18:52:13.530Z,42.51
2022-12-01T18:57:15.512Z,42.07
2022-12-01T19:02:17.643Z,42.61
2022-12-01T19:07:26.605Z,43.72
2022-12-01T19:12:34.157Z,46.10
2022-12-01T19:17:39.926Z,45.00
2022-12-01T19:22:42.171Z,44.19
2022-12-01T19:27:44.439Z,44.79
2022-12-01T19:32:48.443Z,45.11
2022-12-01T19:37:52.676Z,44.56
2022-12-01T19:42:55.604Z,44.25
2022-12-01T19:47:57.840Z,45.26
2022-12-01T19:53:01.279Z,47.08
2022-12-01T19:58:06.347Z,46.76
2022-12-01T20:03:10.192Z,45.47
2022-12-01T20:08:13.917Z,44.99
2022-12-01T20:13:15.889Z,43.68
2022-12-01T20:18:17.848Z,43.23
2022-12-01T20:23:19.803Z,42.22
2022-12-01T20:28:21.768Z,41.88
2022-12-01T20:33:24.798Z,47.40
2022-12-01T20:38:27.870Z,47.96
2022-12-01T20:43:30.071Z,45.50
2022-12-01T20:48:33.202Z,45.45
2022-12-01T20:53:36.099Z,45.13
2022-12-01T20:58:39.818Z,43.64
2022-12-01T21:03:43.632Z,44.55
2022-12-01T21:08:47.490Z,46.84
2022-12-01T21:13:50.446Z,45.21
2022-12-01T21:18:54.974Z,45.50
2022-12-01T21:24:20.124Z,43.92
2022-12-01T21:29:26.611Z,45.33
2022-12-01T21:34:29.282Z,47.73
2022-12-01T21:39:31.234Z,44.37
2022-12-01T21:44:37.710Z,43.57
2022-12-01T21:49:39.866Z,43.19
2022-12-01T21:54:41.882Z,42.61
2022-12-01T21:59:43.761Z,44.39
2022-12-01T22:04:45.678Z,43.01
2022-12-01T22:09:48.332Z,42.89
2022-12-01T22:14:50.935Z,43.18
2022-12-01T22:20:15.050Z,42.90
2022-12-01T22:25:26.356Z,43.95
2022-12-01T22:30:28.292Z,42.89
2022-12-01T22:35:38.893Z,42.26
2022-12-01T22:41:15.978Z,42.12
2022-12-01T22:46:22.952Z,41.82
2022-12-01T22:51:24.919Z,42.58
2022-12-01T22:56:26.910Z,42.33
2022-12-01T23:01:33.017Z,42.34
2022-12-01T23:06:57.269Z,44.47
2022-12-01T23:12:05.187Z,46.01
2022-12-01T23:17:31.386Z,43.55
2022-12-01T23:22:33.322Z,42.34
2022-12-01T23:27:35.504Z,43.28
2022-12-01T23:32:37.936Z,42.98
2022-12-01T23:37:42.438Z,42.92
2022-12-01T23:42:44.368Z,42.49
2022-12-01T23:47:46.507Z,41.10
2022-12-01T23:52:48.467Z,41.12
2022-12-01T23:57:52.362Z,40.31
